createdAt,value
2022-11-12T06:00:54.642Z,970.21
2022-11-12T06:01:54.590Z,970.19
2022-11-12T06:02:54.567Z,970.15
2022-11-12T06:03:54.493Z,970.16
2022-11-12T06:04:54.431Z,970.14
2022-11-12T06:05:54.371Z,970.19
2022-11-12T06:06:54.337Z,970.18
2022-11-12T06:07:54.262Z,970.18
2022-11-12T06:08:54.190Z,970.23
2022-11-12T06:09:54.143Z,970.22
2022-11-12T06:10:54.060Z,970.22
2022-11-12T06:11:53.983Z,970.26
2022-11-12T06:12:53.922Z,970.28
2022-11-12T06:13:53.853Z,970.31
2022-11-12T06:14:53.774Z,970.32
2022-11-12T06:15:53.723Z,970.34
2022-11-12T06:16:53.652Z,970.36
2022-11-12T06:17:53.593Z,970.37
2022-11-12T06:18:53.523Z,970.39
2022-11-12T06:19:53.462Z,970.39
2022-11-12T06:20:53.413Z,970.45
2022-11-12T06:21:53.363Z,970.39
2022-11-12T06:22:53.304Z,970.41
2022-11-12T06:23:53.223Z,970.47
2022-11-12T06:24:53.151Z,970.42
2022-11-12T06:25:53.084Z,970.47
2022-11-12T06:26:53.013Z,970.45
2022-11-12T06:27:52.964Z,970.52
2022-11-12T06:28:52.928Z,970.50
2022-11-12T06:29:52.807Z,970.53
2022-11-12T06:30:52.763Z,970.54
2022-11-12T06:31:52.695Z,970.54
2022-11-12T06:32:52.616Z,970.54
2022-11-12T06:33:52.555Z,970.52
2022-11-12T06:34:52.493Z,970.53
2022-11-12T06:35:52.443Z,970.55
2022-11-12T06:36:52.365Z,970.54
2022-11-12T06:37:52.320Z,970.53
2022-11-12T06:38:52.215Z,970.54
2022-11-12T06:39:52.166Z,970.54
2022-11-12T06:40:52.102Z,970.55
2022-11-12T06:41:52.037Z,970.53
2022-11-12T06:42:51.957Z,970.57
2022-11-12T06:43:51.907Z,970.56
2022-11-12T06:44:51.866Z,970.53
2022-11-12T06:45:51.807Z,970.58
2022-11-12T06:46:51.734Z,970.58
2022-11-12T06:47:51.678Z,970.58
2022-11-12T06:48:51.621Z,970.58
2022-11-12T06:49:51.546Z,970.55
2022-11-12T06:50:51.508Z,970.62
2022-11-12T06:51:51.439Z,970.60
2022-11-12T06:52:51.379Z,970.57
2022-11-12T06:53:51.307Z,970.57
2022-11-12T06:54:51.258Z,970.62
2022-11-12T06:55:51.199Z,970.62
2022-11-12T06:56:51.129Z,970.64
2022-11-12T06:57:51.058Z,970.58
2022-11-12T06:58:50.999Z,970.58
2022-11-12T06:59:50.922Z,970.59
2022-11-12T07:00:50.869Z,970.64
2022-11-12T07:01:50.911Z,970.60
2022-11-12T07:02:50.740Z,970.61
2022-11-12T07:03:50.660Z,970.59
2022-11-12T07:04:50.588Z,970.62
2022-11-12T07:05:50.521Z,970.63
2022-11-12T07:06:50.495Z,970.63
2022-11-12T07:07:50.382Z,970.63
2022-11-12T07:08:50.325Z,970.66
2022-11-12T07:09:50.251Z,970.65
2022-11-12T07:10:50.202Z,970.67
2022-11-12T07:11:50.152Z,970.68
2022-11-12T07:12:53.381Z,970.63
2022-11-12T07:13:49.991Z,970.65
2022-11-12T07:14:49.940Z,970.68
2022-11-12T07:15:49.873Z,970.65
2022-11-12T07:16:49.813Z,970.63
2022-11-12T07:17:49.752Z,970.63
2022-11-12T07:18:49.671Z,970.60
2022-11-12T07:19:49.595Z,970.62
2022-11-12T07:20:49.542Z,970.62
2022-11-12T07:21:49.471Z,970.61
2022-11-12T07:22:49.426Z,970.54
2022-11-12T07:23:49.334Z,970.57
2022-11-12T07:24:49.254Z,970.54
2022-11-12T07:25:49.194Z,970.53
2022-11-12T07:26:49.133Z,970.58
2022-11-12T07:27:49.081Z,970.55
2022-11-12T07:28:48.985Z,970.52
2022-11-12T07:29:49.066Z,970.55
2022-11-12T07:30:48.846Z,970.55
2022-11-12T07:31:48.766Z,970.58
2022-11-12T07:34:24.699Z,970.58
2022-11-12T07:35:24.675Z,970.58
2022-11-12T07:36:24.667Z,970.60
2022-11-12T07:37:24.654Z,970.53
2022-11-12T07:38:24.933Z,970.50
2022-11-12T07:39:24.575Z,970.52
2022-11-12T07:40:24.546Z,970.54
2022-11-12T07:41:24.504Z,970.50
2022-11-12T07:42:24.467Z,970.51
2022-11-12T07:43:24.488Z,970.49
2022-11-12T07:44:24.412Z,970.50
2022-11-12T07:45:24.399Z,970.54
2022-11-12T07:46:24.350Z,970.46
2022-11-12T07:47:24.318Z,970.47
2022-11-12T07:48:24.445Z,970.48
2022-11-12T07:49:24.268Z,970.51
2022-11-12T07:50:24.219Z,970.53
2022-11-12T07:51:24.188Z,970.55
2022-11-12T07:52:24.140Z,970.48
2022-11-12T07:53:24.116Z,970.47
2022-11-12T07:54:24.128Z,970.47
2022-11-12T07:55:24.048Z,970.47
2022-11-12T07:56:24.017Z,970.46
2022-11-12T07:57:23.981Z,970.45
2022-11-12T07:58:24.247Z,970.41
2022-11-12T07:59:23.924Z,970.40
2022-11-12T08:00:23.864Z,970.40
2022-11-12T08:01:23.877Z,970.41
2022-11-12T08:02:23.795Z,970.34
2022-11-12T08:03:23.770Z,970.33
2022-11-12T08:04:23.722Z,970.37
2022-11-12T08:05:23.707Z,970.34
2022-11-12T08:06:23.643Z,970.35
2022-11-12T08:07:23.672Z,970.33
2022-11-12T08:08:23.728Z,970.37
2022-11-12T08:09:23.540Z,970.35
2022-11-12T08:10:23.561Z,970.40
2022-11-12T08:11:23.442Z,970.39
2022-11-12T08:12:23.413Z,970.39
2022-11-12T08:13:23.363Z,970.36
2022-11-12T08:14:23.321Z,970.34
2022-11-12T08:15:23.290Z,970.35
2022-11-12T08:16:23.216Z,970.34
2022-11-12T08:17:23.215Z,970.38
2022-11-12T08:18:23.118Z,970.31
2022-11-12T08:19:23.065Z,970.32
2022-11-12T08:20:23.044Z,970.33
2022-11-12T08:21:22.962Z,970.31
2022-11-12T08:22:22.924Z,970.24
2022-11-12T08:23:22.884Z,970.25
2022-11-12T08:24:22.824Z,970.21
2022-11-12T08:25:22.786Z,970.17
2022-11-12T08:26:22.705Z,970.16
2022-11-12T08:27:22.646Z,970.22
2022-11-12T08:28:22.585Z,970.21
2022-11-12T08:29:22.549Z,970.26
2022-11-12T08:30:22.508Z,970.17
2022-11-12T08:31:22.422Z,970.18
2022-11-12T08:32:22.356Z,970.19
2022-11-12T08:33:22.317Z,970.17
2022-11-12T08:34:22.787Z,970.23
2022-11-12T08:35:22.199Z,970.17
2022-11-12T08:36:22.187Z,970.21
2022-11-12T08:37:22.098Z,970.20
2022-11-12T08:38:22.032Z,970.22
2022-11-12T08:39:22.170Z,970.24
2022-11-12T08:40:21.908Z,970.21
2022-11-12T08:41:21.870Z,970.25
2022-11-12T08:42:21.792Z,970.19
2022-11-12T08:43:21.733Z,970.30
2022-11-12T08:44:21.680Z,970.25
2022-11-12T08:45:21.617Z,970.20
2022-11-12T08:46:21.578Z,970.23
2022-11-12T08:47:21.499Z,970.24
2022-11-12T08:48:21.472Z,970.24
2022-11-12T08:49:21.356Z,970.22
2022-11-12T08:50:21.279Z,970.24
2022-11-12T08:51:21.242Z,970.21
2022-11-12T08:52:21.162Z,970.22
2022-11-12T08:53:21.092Z,970.22
2022-11-12T08:54:21.041Z,970.26
2022-11-12T08:55:20.980Z,970.22
2022-11-12T08:56:20.932Z,970.25
2022-11-12T08:57:20.850Z,970.24
2022-11-12T08:58:20.784Z,970.23
2022-11-12T08:59:20.723Z,970.24
2022-11-12T09:00:20.771Z,970.12
2022-11-12T09:01:20.641Z,970.14
2022-11-12T09:02:20.562Z,970.13
2022-11-12T09:03:20.463Z,970.15
2022-11-12T09:04:20.410Z,970.11
2022-11-12T09:05:20.322Z,970.11
2022-11-12T09:06:20.265Z,970.14
2022-11-12T09:07:48.162Z,970.14
2022-11-12T09:08:21.146Z,970.08
2022-11-12T09:09:20.026Z,970.15
2022-11-12T09:10:19.963Z,970.09
2022-11-12T09:11:19.875Z,970.13
2022-11-12T09:12:19.990Z,970.20
2022-11-12T09:13:19.748Z,970.20
2022-11-12T09:14:19.785Z,970.10
2022-11-12T09:15:37.338Z,970.10
2022-11-12T09:16:20.509Z,970.15
2022-11-12T09:17:19.436Z,970.15
2022-11-12T09:18:19.344Z,970.17
2022-11-12T09:19:19.267Z,970.15
2022-11-12T09:20:19.200Z,970.15
2022-11-12T09:21:19.097Z,970.13
2022-11-12T09:22:19.109Z,970.19
2022-11-12T09:23:18.947Z,970.14
2022-11-12T09:24:18.877Z,970.12
2022-11-12T09:25:18.777Z,970.13
2022-11-12T09:26:18.699Z,970.17
2022-11-12T09:27:18.660Z,970.17
2022-11-12T09:28:18.551Z,970.15
2022-11-12T09:29:18.450Z,970.12
2022-11-12T09:30:18.385Z,970.10
2022-11-12T09:31:18.680Z,970.07
2022-11-12T09:32:18.214Z,970.07
2022-11-12T09:33:18.142Z,970.05
2022-11-12T09:34:18.029Z,970.08
2022-11-12T09:35:17.940Z,970.06
2022-11-12T09:36:18.014Z,970.07
2022-11-12T09:37:17.770Z,970.06
2022-11-12T09:38:17.780Z,970.06
2022-11-12T09:39:17.601Z,970.09
2022-11-12T09:40:17.515Z,970.06
2022-11-12T09:41:17.471Z,970.07
2022-11-12T09:42:17.323Z,970.03
2022-11-12T09:43:17.279Z,970.03
2022-11-12T09:44:17.177Z,970.02
2022-11-12T09:45:17.041Z,970.03
2022-11-12T09:46:28.096Z,970.02
2022-11-12T09:47:17.864Z,970.00
2022-11-12T09:48:16.784Z,969.99
2022-11-12T09:49:16.705Z,970.01
2022-11-12T09:50:16.657Z,969.95
2022-11-12T09:51:16.494Z,969.97
2022-11-12T09:52:16.466Z,969.99
2022-11-12T09:53:16.337Z,969.97
2022-11-12T09:54:16.521Z,970.01
2022-11-12T09:55:16.103Z,970.02
2022-11-12T09:56:16.449Z,970.02
2022-11-12T09:57:15.906Z,970.00
2022-11-12T09:58:15.826Z,970.00
2022-11-12T09:59:16.147Z,969.98
2022-11-12T10:00:15.681Z,969.96
2022-11-12T10:01:15.632Z,969.96
2022-11-12T10:02:15.436Z,969.96
2022-11-12T10:03:15.386Z,969.99
2022-11-12T10:04:15.298Z,969.98
2022-11-12T10:05:15.355Z,970.00
2022-11-12T10:06:19.120Z,970.02
2022-11-12T10:07:15.080Z,970.01
2022-11-12T10:08:14.873Z,970.00
2022-11-12T10:09:14.829Z,969.98
2022-11-12T10:10:14.679Z,970.00
2022-11-12T10:11:14.559Z,969.99
2022-11-12T10:12:14.474Z,970.02
2022-11-12T10:13:14.363Z,970.01
2022-11-12T10:14:14.270Z,970.01
2022-11-12T10:15:14.197Z,970.02
2022-11-12T10:16:14.080Z,970.00
2022-11-12T10:17:13.978Z,970.04
2022-11-12T10:18:13.899Z,970.01
2022-11-12T10:19:13.776Z,969.97
2022-11-12T10:20:13.702Z,969.98
2022-11-12T10:21:13.589Z,969.97
2022-11-12T10:22:13.590Z,969.92
2022-11-12T10:23:13.371Z,969.92
2022-11-12T10:24:13.263Z,969.84
2022-11-12T10:25:13.204Z,969.92
2022-11-12T10:26:13.063Z,969.89
2022-11-12T10:27:12.961Z,969.90
2022-11-12T10:28:12.862Z,969.89
2022-11-12T10:29:12.753Z,969.89
2022-11-12T10:30:12.672Z,969.83
2022-11-12T10:31:12.564Z,969.79
2022-11-12T10:32:12.444Z,969.76
2022-11-12T10:33:12.365Z,969.76
2022-11-12T10:34:12.244Z,969.75
2022-11-12T10:35:12.167Z,969.75
2022-11-12T10:36:12.052Z,969.77
2022-11-12T10:37:11.950Z,969.77
2022-11-12T10:38:11.835Z,969.75
2022-11-12T10:39:11.730Z,969.75
2022-11-12T10:40:11.652Z,969.72
2022-11-12T10:41:11.507Z,969.76
2022-11-12T10:42:11.507Z,969.72
2022-11-12T10:43:11.298Z,969.76
2022-11-12T10:44:11.187Z,969.71
2022-11-12T10:45:11.098Z,969.74
2022-11-12T10:46:10.976Z,969.73
2022-11-12T10:47:10.898Z,969.72
2022-11-12T10:48:10.765Z,969.67
2022-11-12T10:49:10.651Z,969.63
2022-11-12T10:50:10.528Z,969.61
2022-11-12T10:51:10.440Z,969.61
2022-11-12T10:52:11.081Z,969.58
2022-11-12T10:53:10.180Z,969.60
2022-11-12T10:54:10.060Z,969.61
2022-11-12T10:55:10.029Z,969.59
2022-11-12T10:56:09.872Z,969.50
2022-11-12T10:57:09.719Z,969.50
2022-11-12T10:58:09.624Z,969.50
2022-11-12T10:59:09.500Z,969.49
2022-11-12T11:00:09.381Z,969.48
2022-11-12T11:01:09.293Z,969.46
2022-11-12T11:02:09.206Z,969.44
2022-11-12T11:03:09.044Z,969.44
2022-11-12T11:04:08.946Z,969.44
2022-11-12T11:05:08.811Z,969.43
2022-11-12T11:06:08.713Z,969.44
2022-11-12T11:07:08.612Z,969.35
2022-11-12T11:08:08.463Z,969.40
2022-11-12T11:09:08.333Z,969.39
2022-11-12T11:10:08.235Z,969.41
2022-11-12T11:11:08.113Z,969.39
2022-11-12T11:12:08.044Z,969.43
2022-11-12T11:13:07.864Z,969.39
2022-11-12T11:14:07.756Z,969.38
2022-11-12T11:15:07.635Z,969.37
2022-11-12T11:16:07.527Z,969.32
2022-11-12T11:17:07.418Z,969.35
2022-11-12T11:18:07.319Z,969.33
2022-11-12T11:19:07.157Z,969.35
2022-11-12T11:20:07.045Z,969.35
2022-11-12T11:21:06.926Z,969.29
2022-11-12T11:22:06.844Z,969.27
2022-11-12T11:23:06.678Z,969.29
2022-11-12T11:24:06.558Z,969.30
2022-11-12T11:25:06.419Z,969.27
2022-11-12T11:26:06.310Z,969.30
2022-11-12T11:27:06.198Z,969.30
2022-11-12T11:28:06.061Z,969.30
2022-11-12T11:29:05.928Z,969.31
2022-11-12T11:30:05.898Z,969.33
2022-11-12T11:31:05.769Z,969.29
2022-11-12T11:32:05.612Z,969.28
2022-11-12T11:33:05.472Z,969.27
2022-11-12T11:34:05.342Z,969.28
2022-11-12T11:35:05.195Z,969.29
2022-11-12T11:36:05.141Z,969.28
2022-11-12T11:37:04.935Z,969.28
2022-11-12T11:38:04.822Z,969.24
2022-11-12T11:39:04.676Z,969.23
2022-11-12T11:40:04.543Z,969.24
2022-11-12T11:41:04.425Z,969.23
2022-11-12T11:42:04.285Z,969.14
2022-11-12T11:43:04.196Z,969.16
2022-11-12T11:44:04.054Z,969.11
2022-11-12T11:45:03.886Z,969.15
2022-11-12T11:46:03.774Z,969.14
2022-11-12T11:47:03.627Z,969.13
2022-11-12T11:48:03.514Z,969.12
2022-11-12T11:49:03.355Z,969.14
2022-11-12T11:50:03.246Z,969.12
2022-11-12T11:51:03.098Z,969.12
2022-11-12T11:52:02.970Z,969.08
2022-11-12T11:53:02.856Z,969.05
2022-11-12T11:54:02.701Z,969.07
2022-11-12T11:55:02.569Z,969.06
2022-11-12T11:56:02.440Z,969.05
2022-11-12T11:57:02.287Z,969.08
2022-11-12T11:58:02.271Z,969.06
2022-11-12T11:59:02.039Z,969.08
2022-11-12T12:00:01.898Z,969.05
2022-11-12T12:01:01.767Z,969.08
2022-11-12T12:02:01.626Z,969.02
2022-11-12T12:03:01.545Z,968.98
2022-11-12T12:04:01.645Z,969.02
2022-11-12T12:05:01.229Z,968.95
2022-11-12T12:06:01.080Z,968.97
2022-11-12T12:07:00.961Z,968.92
2022-11-12T12:08:00.791Z,968.97
2022-11-12T12:09:00.674Z,968.95
2022-11-12T12:10:04.778Z,968.90
2022-11-12T12:11:08.040Z,968.88
2022-11-12T12:12:01.222Z,968.86
2022-11-12T12:13:00.084Z,968.89
2022-11-12T12:13:59.933Z,968.83
2022-11-12T12:14:59.792Z,968.88
2022-11-12T12:15:59.644Z,968.85
2022-11-12T12:16:59.509Z,968.76
2022-11-12T12:17:59.346Z,968.81
2022-11-12T12:18:59.202Z,968.84
2022-11-12T12:19:59.089Z,968.80
2022-11-12T12:20:58.927Z,968.82
2022-11-12T12:21:58.797Z,968.82
2022-11-12T12:22:58.635Z,968.83
2022-11-12T12:23:58.499Z,968.85
2022-11-12T12:24:58.366Z,968.84
2022-11-12T12:26:00.433Z,968.82
2022-11-12T12:26:58.077Z,968.81
2022-11-12T12:27:57.918Z,968.79
2022-11-12T12:28:57.801Z,968.79
2022-11-12T12:29:57.705Z,968.81
2022-11-12T12:30:57.491Z,968.80
2022-11-12T12:31:57.317Z,968.77
2022-11-12T12:32:58.140Z,968.73
2022-11-12T12:33:57.038Z,968.77
2022-11-12T12:34:56.904Z,968.79
2022-11-12T12:35:56.769Z,968.73
2022-11-12T12:36:56.617Z,968.72
2022-11-12T12:37:56.498Z,968.67
2022-11-12T12:38:56.312Z,968.68
2022-11-12T12:39:56.170Z,968.71
2022-11-12T12:40:56.043Z,968.65
2022-11-12T12:41:55.895Z,968.68
2022-11-12T12:42:55.721Z,968.69
2022-11-12T12:43:55.585Z,968.68
2022-11-12T12:44:55.430Z,968.70
2022-11-12T12:45:55.303Z,968.70
2022-11-12T12:46:55.154Z,968.69
2022-11-12T12:47:54.991Z,968.64
2022-11-12T12:48:54.833Z,968.65
2022-11-12T12:49:54.694Z,968.60
2022-11-12T12:50:54.566Z,968.61
2022-11-12T12:51:55.973Z,968.63
2022-11-12T12:52:54.273Z,968.63
2022-11-12T12:53:54.086Z,968.62
2022-11-12T12:54:53.948Z,968.59
2022-11-12T12:56:43.322Z,968.58
2022-11-12T12:57:43.281Z,968.59
2022-11-12T12:58:43.251Z,968.62
2022-11-12T12:59:43.204Z,968.60
2022-11-12T13:00:43.228Z,968.57
2022-11-12T13:01:43.146Z,968.58
2022-11-12T13:02:43.086Z,968.57
2022-11-12T13:03:43.069Z,968.53
2022-11-12T13:04:43.025Z,968.54
2022-11-12T13:05:42.984Z,968.52
2022-11-12T13:06:43.054Z,968.50
2022-11-12T13:07:42.926Z,968.49
2022-11-12T13:08:42.875Z,968.50
2022-11-12T13:09:42.865Z,968.50
2022-11-12T13:10:42.828Z,968.45
2022-11-12T13:11:42.808Z,968.45
2022-11-12T13:12:42.730Z,968.41
2022-11-12T13:13:42.706Z,968.43
2022-11-12T13:14:42.660Z,968.39
2022-11-12T13:15:42.637Z,968.42
2022-11-12T13:16:42.603Z,968.40
2022-11-12T13:17:42.538Z,968.43
2022-11-12T13:18:42.508Z,968.40
2022-11-12T13:19:42.489Z,968.42
2022-11-12T13:20:42.486Z,968.41
2022-11-12T13:21:42.410Z,968.45
2022-11-12T13:22:42.392Z,968.38
2022-11-12T13:23:42.350Z,968.38
2022-11-12T13:24:42.301Z,968.38
2022-11-12T13:25:42.282Z,968.38
2022-11-12T13:26:42.239Z,968.36
2022-11-12T13:27:42.234Z,968.40
2022-11-12T13:28:42.172Z,968.37
2022-11-12T13:29:42.126Z,968.42
2022-11-12T13:30:42.084Z,968.41
2022-11-12T13:31:42.053Z,968.41
2022-11-12T13:32:42.043Z,968.41
2022-11-12T13:33:42.004Z,968.41
2022-11-12T13:34:41.955Z,968.42
2022-11-12T13:35:41.937Z,968.40
2022-11-12T13:36:41.914Z,968.41
2022-11-12T13:37:41.904Z,968.39
2022-11-12T13:38:41.875Z,968.39
2022-11-12T13:39:41.846Z,968.36
2022-11-12T13:40:41.837Z,968.40
2022-11-12T13:41:41.788Z,968.40
2022-11-12T13:42:41.766Z,968.37
2022-11-12T13:43:41.715Z,968.39
2022-11-12T13:44:41.680Z,968.37
2022-11-12T13:45:41.646Z,968.36
2022-11-12T13:46:41.607Z,968.31
2022-11-12T13:47:41.595Z,968.35
2022-11-12T13:48:41.569Z,968.40
2022-11-12T13:49:41.498Z,968.37
2022-11-12T13:50:41.462Z,968.40
2022-11-12T13:51:41.428Z,968.42
2022-11-12T13:52:41.421Z,968.43
2022-11-12T13:53:41.383Z,968.38
2022-11-12T13:54:41.355Z,968.40
2022-11-12T13:55:41.290Z,968.39
2022-11-12T13:56:41.262Z,968.42
2022-11-12T13:57:41.240Z,968.42
2022-11-12T13:58:41.208Z,968.42
2022-11-12T13:59:41.164Z,968.39
2022-11-12T14:00:41.176Z,968.41
2022-11-12T14:01:41.072Z,968.39
2022-11-12T14:02:41.719Z,968.36
2022-11-12T14:03:41.033Z,968.35
2022-11-12T14:04:40.984Z,968.39
2022-11-12T14:05:40.950Z,968.38
2022-11-12T14:06:40.997Z,968.35
2022-11-12T14:07:40.903Z,968.38
2022-11-12T14:08:40.896Z,968.39
2022-11-12T14:09:40.856Z,968.37
2022-11-12T14:10:45.751Z,968.36
2022-11-12T14:11:41.790Z,968.37
2022-11-12T14:12:40.760Z,968.39
2022-11-12T14:13:40.747Z,968.36
2022-11-12T14:14:40.707Z,968.37
2022-11-12T14:15:40.670Z,968.35
2022-11-12T14:16:40.668Z,968.38
2022-11-12T14:17:40.612Z,968.37
2022-11-12T14:18:40.633Z,968.37
2022-11-12T14:19:40.573Z,968.38
2022-11-12T14:20:40.520Z,968.36
2022-11-12T14:21:40.514Z,968.37
2022-11-12T14:22:40.479Z,968.40
2022-11-12T14:23:40.457Z,968.37
2022-11-12T14:24:40.419Z,968.41
2022-11-12T14:25:40.380Z,968.38
2022-11-12T14:26:40.350Z,968.39
2022-11-12T14:27:40.329Z,968.32
2022-11-12T14:28:40.306Z,968.40
2022-11-12T14:29:43.706Z,968.31
2022-11-12T14:30:40.250Z,968.37
2022-11-12T14:31:40.222Z,968.40
2022-11-12T14:32:40.204Z,968.34
2022-11-12T14:33:40.176Z,968.31
2022-11-12T14:34:40.204Z,968.32
2022-11-12T14:35:40.163Z,968.35
2022-11-12T14:36:40.103Z,968.35
2022-11-12T14:37:43.643Z,968.36
2022-11-12T14:38:40.075Z,968.35
2022-11-12T14:39:40.056Z,968.30
2022-11-12T14:40:40.044Z,968.31
2022-11-12T14:41:40.014Z,968.30
2022-11-12T14:42:39.998Z,968.30
2022-11-12T14:43:39.985Z,968.25
2022-11-12T14:44:39.967Z,968.22
2022-11-12T14:45:39.967Z,968.22
2022-11-12T14:46:39.926Z,968.23
2022-11-12T14:47:39.923Z,968.19
2022-11-12T14:48:39.907Z,968.22
2022-11-12T14:49:43.979Z,968.19
2022-11-12T14:50:43.219Z,968.18
2022-11-12T16:56:56.215Z,968.12
2022-11-12T16:57:56.114Z,968.11
2022-11-12T16:58:56.036Z,968.13
2022-11-12T16:59:55.964Z,968.12
2022-11-12T17:00:55.894Z,968.07
2022-11-12T17:01:55.815Z,968.09
2022-11-12T17:02:55.705Z,968.12
2022-11-12T17:03:55.636Z,968.14
2022-11-12T17:04:55.545Z,968.14
2022-11-12T17:05:55.455Z,968.11
2022-11-12T17:06:55.488Z,968.14
2022-11-12T17:07:55.296Z,968.13
2022-11-12T17:08:55.189Z,968.16
2022-11-12T17:09:55.107Z,968.15
2022-11-12T17:10:54.996Z,968.13
2022-11-12T17:11:54.908Z,968.12
2022-11-12T17:12:54.806Z,968.11
2022-11-12T17:13:54.730Z,968.15
2022-11-12T17:14:54.617Z,968.13
2022-11-12T17:15:54.541Z,968.14
2022-11-12T17:16:54.461Z,968.14
2022-11-12T17:17:54.379Z,968.13
2022-11-12T17:18:54.270Z,968.12
2022-11-12T17:19:54.179Z,968.08
2022-11-12T17:20:54.111Z,968.08
2022-11-12T17:21:53.988Z,968.13
2022-11-12T17:22:53.921Z,968.07
2022-11-12T17:23:53.820Z,968.07
2022-11-12T17:24:53.737Z,968.11
2022-11-12T17:25:53.613Z,968.09
2022-11-12T17:26:53.520Z,968.09
2022-11-12T17:27:53.443Z,968.10
2022-11-12T17:29:00.116Z,968.12
2022-11-12T17:29:54.243Z,968.17
2022-11-12T17:30:53.150Z,968.16
2022-11-12T17:31:53.063Z,968.16
2022-11-12T17:32:52.991Z,968.17
2022-11-12T17:33:52.900Z,968.17
2022-11-12T17:34:52.812Z,968.17
2022-11-12T17:35:52.711Z,968.16
2022-11-12T17:36:52.621Z,968.16
2022-11-12T17:37:52.550Z,968.12
2022-11-12T17:38:52.484Z,968.12
2022-11-12T17:39:52.372Z,968.16
2022-11-12T17:40:52.290Z,968.12
2022-11-12T17:41:52.225Z,968.10
2022-11-12T17:42:52.114Z,968.11
2022-11-12T17:43:52.045Z,968.11
2022-11-12T17:44:51.956Z,968.13
2022-11-12T17:45:51.843Z,968.10
2022-11-12T17:46:51.733Z,968.11
2022-11-12T17:47:51.645Z,968.10
2022-11-12T17:48:51.565Z,968.09
2022-11-12T17:49:51.444Z,968.11
2022-11-12T17:50:51.357Z,968.11
2022-11-12T17:51:51.275Z,968.12
2022-11-12T17:52:51.182Z,968.10
2022-11-12T17:53:51.124Z,968.16
2022-11-12T17:54:50.995Z,968.10
2022-11-12T17:55:50.944Z,968.14
2022-11-12T17:56:50.857Z,968.15
2022-11-12T17:57:50.755Z,968.17
2022-11-12T17:58:50.678Z,968.15
2022-11-12T17:59:50.582Z,968.13
2022-11-12T18:00:50.592Z,968.13
2022-11-12T18:01:50.412Z,968.10
2022-11-12T18:02:50.318Z,968.10
2022-11-12T18:03:50.287Z,968.14
2022-11-12T18:04:50.140Z,968.11
2022-11-12T18:05:50.059Z,968.12
2022-11-12T18:06:50.049Z,968.11
2022-11-12T18:07:49.939Z,968.08
2022-11-12T18:08:49.849Z,968.08
2022-11-12T18:09:49.750Z,968.03
2022-11-12T18:10:49.668Z,968.02
2022-11-12T18:11:49.578Z,968.06
2022-11-12T18:12:49.497Z,968.01
2022-11-12T18:13:49.447Z,968.08
2022-11-12T18:14:49.339Z,968.08
2022-11-12T18:15:49.240Z,968.06
2022-11-12T18:16:49.159Z,968.09
2022-11-12T18:17:49.074Z,968.06
2022-11-12T18:18:49.019Z,968.05
2022-11-12T18:19:48.920Z,968.09
2022-11-12T18:20:48.870Z,968.05
2022-11-12T18:21:48.780Z,968.02
2022-11-12T18:22:48.680Z,967.99
2022-11-12T18:23:48.619Z,968.03
2022-11-12T18:24:48.559Z,968.04
2022-11-12T18:25:48.451Z,968.02
2022-11-12T18:26:48.381Z,968.04
2022-11-12T18:27:48.302Z,968.02
2022-11-12T18:28:48.212Z,967.96
2022-11-12T18:29:48.162Z,968.00
2022-11-12T18:30:48.062Z,967.97
2022-11-12T18:31:47.993Z,967.95
2022-11-12T18:32:47.917Z,967.92
2022-11-12T18:33:47.843Z,967.94
2022-11-12T18:34:47.775Z,967.94
2022-11-12T18:35:47.692Z,967.95
2022-11-12T18:36:47.625Z,967.89
2022-11-12T18:37:47.536Z,967.88
2022-11-12T18:38:47.463Z,967.87
2022-11-12T18:39:47.411Z,967.87
2022-11-12T18:40:47.315Z,967.89
2022-11-12T18:41:47.260Z,967.89
2022-11-12T18:42:47.225Z,967.84
2022-11-12T18:43:47.106Z,967.85
2022-11-12T18:44:47.018Z,967.86
2022-11-12T18:45:46.993Z,967.87
2022-11-12T18:46:46.866Z,967.86
2022-11-12T18:47:46.805Z,967.88
2022-11-12T18:48:46.725Z,967.87
2022-11-12T18:49:46.646Z,967.86
2022-11-12T18:50:46.593Z,967.83
2022-11-12T18:51:46.546Z,967.85
2022-11-12T18:52:46.462Z,967.85
2022-11-12T18:53:46.355Z,967.88
2022-11-12T18:54:46.374Z,967.90
2022-11-12T18:55:46.188Z,967.88
2022-11-12T18:56:46.096Z,967.94
2022-11-12T18:57:46.019Z,967.89
2022-11-12T18:58:45.956Z,967.84
2022-11-12T18:59:45.862Z,967.86
2022-11-12T19:00:45.874Z,967.86
2022-11-12T19:01:45.766Z,967.81
2022-11-12T19:02:45.690Z,967.82
2022-11-12T19:03:45.580Z,967.82
2022-11-12T19:04:45.723Z,967.83
2022-11-12T19:05:45.428Z,967.84
2022-11-12T19:06:45.367Z,967.87
2022-11-12T19:07:45.329Z,967.83
2022-11-12T19:08:45.187Z,967.85
2022-11-12T19:09:45.126Z,967.80
2022-11-12T19:10:45.068Z,967.84
